createdAt,value
2022-12-23T00:01:03.825Z,88.58
2022-12-23T00:03:33.494Z,88.13
2022-12-23T00:06:02.271Z,87.65
2022-12-23T00:08:30.002Z,88.48
2022-12-23T00:10:58.326Z,88.00
2022-12-23T00:13:43.524Z,87.48
2022-12-23T00:16:15.012Z,87.69
2022-12-23T00:18:43.814Z,86.96
2022-12-23T00:21:13.756Z,87.69
2022-12-23T00:23:46.965Z,87.68
2022-12-23T00:26:16.705Z,87.70
2022-12-23T00:28:45.134Z,87.23
2022-12-23T00:31:14.874Z,87.20
2022-12-23T00:33:45.175Z,88.15
2022-12-23T00:36:14.950Z,87.40
2022-12-23T00:39:00.592Z,87.07
2022-12-23T00:41:45.913Z,87.29
2022-12-23T00:44:14.420Z,87.53
2022-12-23T00:46:43.399Z,87.31
2022-12-23T00:49:31.329Z,86.95
2022-12-23T00:51:59.983Z,87.97
2022-12-23T00:54:27.634Z,87.73
2022-12-23T00:56:55.390Z,88.52
2022-12-23T00:59:23.389Z,87.78
2022-12-23T01:02:10.453Z,88.07
2022-12-23T01:04:56.089Z,88.44
2022-12-23T01:07:25.108Z,88.94
2022-12-23T01:09:52.730Z,89.76
2022-12-23T01:12:20.821Z,89.55
2022-12-23T01:14:50.989Z,89.98
2022-12-23T01:17:21.310Z,89.57
2022-12-23T01:19:49.565Z,89.41
2022-12-23T01:22:17.160Z,90.11
2022-12-23T01:24:45.104Z,90.27
2022-12-23T01:27:12.677Z,90.21
2022-12-23T01:29:40.789Z,90.75
2022-12-23T01:32:08.453Z,89.92
2022-12-23T01:34:37.875Z,89.96
2022-12-23T01:37:05.915Z,89.53
2022-12-23T01:39:33.836Z,89.50
2022-12-23T01:42:19.672Z,89.13
2022-12-23T01:44:55.096Z,89.60
2022-12-23T01:47:33.092Z,89.56
2022-12-23T01:50:07.196Z,89.63
2022-12-23T01:52:39.667Z,90.29
2022-12-23T01:55:08.465Z,89.91
2022-12-23T01:57:38.511Z,90.04
2022-12-23T02:00:28.534Z,90.34
2022-12-23T02:03:14.235Z,91.06
2022-12-23T02:05:45.077Z,91.07
2022-12-23T02:08:33.268Z,90.82
2022-12-23T02:11:20.066Z,90.84
2022-12-23T02:14:17.621Z,90.66
2022-12-23T02:16:52.082Z,90.41
2022-12-23T02:19:37.195Z,90.16
2022-12-23T02:22:24.956Z,92.01
2022-12-23T02:25:13.331Z,92.22
2022-12-23T02:27:55.759Z,92.22
2022-12-23T02:30:29.335Z,93.16
2022-12-23T02:33:15.856Z,93.22
2022-12-23T02:35:49.642Z,93.58
2022-12-23T02:38:24.574Z,92.44
2022-12-23T02:41:00.765Z,91.82
2022-12-23T02:43:36.453Z,92.01
2022-12-23T02:46:13.140Z,92.12
2022-12-23T02:48:47.281Z,92.55
2022-12-23T02:51:18.257Z,92.54
2022-12-23T02:53:51.869Z,92.33
2022-12-23T02:56:22.451Z,92.19
2022-12-23T02:58:55.691Z,92.30
2022-12-23T03:01:27.666Z,93.06
2022-12-23T03:03:55.492Z,93.13
2022-12-23T03:06:27.134Z,92.88
2022-12-23T03:08:58.496Z,93.31
2022-12-23T03:11:40.016Z,92.21
2022-12-23T03:14:30.445Z,92.41
2022-12-23T03:17:11.704Z,93.16
2022-12-23T03:19:47.988Z,93.33
2022-12-23T03:22:24.939Z,93.63
2022-12-23T03:25:02.365Z,93.57
2022-12-23T03:27:34.912Z,92.99
2022-12-23T03:30:07.676Z,93.59
2022-12-23T03:32:42.092Z,94.01
2022-12-23T03:35:13.673Z,94.63
2022-12-23T03:37:45.793Z,93.40
2022-12-23T03:40:20.110Z,93.93
2022-12-23T03:42:51.277Z,92.68
2022-12-23T03:45:41.398Z,93.72
2022-12-23T03:48:14.629Z,93.87
2022-12-23T03:50:45.887Z,93.80
2022-12-23T03:53:18.430Z,93.40
2022-12-23T03:55:52.853Z,93.40
2022-12-23T03:58:31.817Z,92.86
2022-12-23T04:01:05.727Z,93.06
2022-12-23T04:03:42.769Z,93.15
2022-12-23T04:06:16.015Z,92.85
2022-12-23T04:08:45.552Z,92.93
2022-12-23T04:11:14.440Z,93.00
2022-12-23T04:13:42.182Z,92.79
2022-12-23T04:16:11.267Z,92.47
2022-12-23T04:18:40.394Z,92.29
2022-12-23T04:21:08.323Z,91.77
2022-12-23T04:23:35.968Z,91.71
2022-12-23T04:26:03.590Z,92.26
2022-12-23T04:28:31.195Z,91.99
2022-12-23T04:30:59.552Z,92.53
2022-12-23T04:33:27.207Z,92.54
2022-12-23T04:35:56.364Z,93.17
2022-12-23T04:38:24.593Z,93.51
2022-12-23T04:40:52.203Z,92.48
2022-12-23T04:43:19.842Z,92.83
2022-12-23T04:45:51.736Z,93.10
2022-12-23T04:48:19.799Z,93.54
2022-12-23T04:50:49.761Z,92.65
2022-12-23T04:53:18.720Z,92.68
2022-12-23T04:55:51.402Z,93.11
2022-12-23T04:58:21.920Z,93.12
2022-12-23T05:00:49.715Z,92.61
2022-12-23T05:03:17.477Z,92.52
2022-12-23T05:05:45.878Z,92.36
2022-12-23T05:08:14.257Z,92.49
2022-12-23T05:10:43.193Z,92.34
2022-12-23T05:13:11.424Z,93.37
2022-12-23T05:15:39.042Z,92.45
2022-12-23T05:18:06.816Z,92.38
2022-12-23T05:20:34.417Z,92.02
2022-12-23T05:23:02.079Z,94.27
2022-12-23T05:25:29.678Z,93.13
2022-12-23T05:27:59.386Z,92.95
2022-12-23T05:30:27.025Z,92.85
2022-12-23T05:32:56.000Z,92.69
2022-12-23T05:35:24.374Z,92.81
2022-12-23T05:37:52.463Z,92.01
2022-12-23T05:40:23.761Z,92.40
2022-12-23T05:42:58.847Z,92.00
2022-12-23T05:45:26.505Z,92.75
2022-12-23T05:47:54.157Z,92.81
2022-12-23T05:50:21.755Z,92.66
2022-12-23T05:52:50.179Z,92.73
2022-12-23T05:55:17.972Z,92.73
2022-12-23T05:57:46.732Z,93.55
2022-12-23T06:00:17.450Z,92.81
2022-12-23T06:02:51.776Z,92.40
2022-12-23T06:05:21.322Z,91.50
2022-12-23T06:07:50.122Z,92.56
2022-12-23T06:10:17.872Z,91.90
2022-12-23T06:12:45.915Z,91.57
2022-12-23T06:15:13.970Z,91.34
2022-12-23T06:17:43.448Z,91.77
2022-12-23T06:20:19.712Z,91.47
2022-12-23T06:22:48.942Z,91.17
2022-12-23T06:25:16.647Z,91.64
2022-12-23T06:27:45.067Z,91.34
2022-12-23T06:30:12.977Z,91.47
2022-12-23T06:32:40.943Z,91.61
2022-12-23T06:35:10.836Z,91.33
2022-12-23T06:37:38.892Z,92.11
2022-12-23T06:40:07.860Z,92.42
2022-12-23T06:42:35.841Z,93.06
2022-12-23T06:45:03.464Z,93.34
2022-12-23T06:47:31.479Z,93.94
2022-12-23T06:49:59.305Z,93.79
2022-12-23T06:52:28.856Z,93.16
2022-12-23T06:54:56.451Z,93.62
2022-12-23T06:57:24.098Z,93.30
2022-12-23T06:59:51.671Z,92.96
2022-12-23T07:02:19.775Z,92.78
2022-12-23T07:04:48.226Z,92.51
2022-12-23T07:07:15.920Z,92.23
2022-12-23T07:09:45.587Z,92.44
2022-12-23T07:12:13.163Z,92.66
2022-12-23T07:14:41.135Z,92.46
2022-12-23T07:17:08.834Z,92.72
2022-12-23T07:19:36.905Z,92.38
2022-12-23T07:22:04.808Z,93.22
2022-12-23T07:24:32.793Z,93.87
2022-12-23T07:27:01.712Z,93.54
2022-12-23T07:29:29.603Z,93.35
2022-12-23T07:31:57.235Z,93.57
2022-12-23T07:34:25.077Z,93.98
2022-12-23T07:36:52.730Z,93.45
2022-12-23T07:39:20.653Z,93.78
2022-12-23T07:41:48.375Z,93.67
2022-12-23T07:44:17.719Z,93.42
2022-12-23T07:46:45.635Z,94.25
2022-12-23T07:49:13.537Z,94.91
2022-12-23T07:51:41.125Z,94.59
2022-12-23T07:54:08.731Z,94.53
2022-12-23T07:56:36.437Z,95.00
2022-12-23T07:59:04.158Z,94.85
2022-12-23T08:01:33.223Z,94.06
2022-12-23T08:04:01.776Z,93.62
2022-12-23T08:06:29.428Z,93.62
2022-12-23T08:08:57.048Z,93.59
2022-12-23T08:11:24.660Z,93.48
2022-12-23T08:13:52.974Z,93.66
2022-12-23T08:16:20.635Z,94.16
2022-12-23T08:18:50.165Z,93.93
2022-12-23T08:21:19.471Z,93.98
2022-12-23T08:23:48.572Z,93.85
2022-12-23T08:26:18.189Z,94.02
2022-12-23T08:28:46.509Z,94.21
2022-12-23T08:31:16.412Z,93.63
2022-12-23T08:33:46.782Z,93.08
2022-12-23T08:36:23.039Z,93.05
2022-12-23T08:38:52.848Z,92.99
2022-12-23T08:41:22.957Z,93.11
2022-12-23T08:43:51.351Z,93.08
2022-12-23T08:46:19.405Z,92.72
2022-12-23T08:48:49.814Z,92.71
2022-12-23T08:51:21.454Z,92.94
2022-12-23T08:53:59.657Z,92.69
2022-12-23T08:56:30.519Z,92.77
2022-12-23T08:58:58.512Z,92.85
2022-12-23T09:01:28.469Z,93.57
2022-12-23T09:03:56.567Z,92.93
2022-12-23T09:06:30.047Z,93.00
2022-12-23T09:08:59.322Z,93.07
2022-12-23T09:11:29.026Z,92.90
2022-12-23T09:13:57.871Z,93.26
2022-12-23T09:16:25.760Z,93.05
2022-12-23T09:18:53.784Z,92.73
2022-12-23T09:21:23.488Z,92.99
2022-12-23T09:23:53.003Z,93.78
2022-12-23T09:26:23.628Z,92.98
2022-12-23T09:28:51.631Z,93.05
2022-12-23T09:31:20.120Z,93.14
2022-12-23T09:33:49.217Z,93.45
2022-12-23T09:36:17.234Z,92.73
2022-12-23T09:38:44.956Z,93.13
2022-12-23T09:41:27.600Z,92.95
2022-12-23T09:44:09.072Z,92.86
2022-12-23T09:46:48.634Z,93.06
2022-12-23T09:49:18.461Z,93.71
2022-12-23T09:51:48.696Z,93.76
2022-12-23T09:54:20.374Z,93.47
2022-12-23T09:57:01.711Z,93.75
2022-12-23T09:59:49.930Z,94.29
2022-12-23T10:02:26.687Z,94.29
2022-12-23T10:05:05.950Z,94.38
2022-12-23T10:07:38.348Z,93.84
2022-12-23T10:10:15.538Z,94.46
2022-12-23T10:12:48.551Z,94.54
2022-12-23T10:15:23.627Z,93.67
2022-12-23T10:17:55.778Z,93.80
2022-12-23T10:20:33.437Z,92.67
2022-12-23T10:23:01.321Z,93.24
2022-12-23T10:25:36.744Z,92.56
2022-12-23T10:28:05.919Z,93.16
2022-12-23T10:31:05.942Z,92.88
2022-12-23T10:33:37.197Z,92.84
2022-12-23T10:36:10.074Z,92.47
2022-12-23T10:38:48.927Z,92.19
2022-12-23T10:41:26.253Z,92.60
2022-12-23T10:44:15.426Z,92.59
2022-12-23T10:46:51.753Z,92.69
2022-12-23T10:49:31.166Z,92.48
2022-12-23T10:52:01.229Z,92.56
2022-12-23T10:54:33.313Z,91.89
2022-12-23T10:57:02.042Z,92.01
2022-12-23T10:59:34.980Z,91.80
2022-12-23T11:02:07.296Z,91.70
2022-12-23T11:04:37.900Z,92.65
2022-12-23T11:07:42.758Z,91.98
2022-12-23T11:10:02.072Z,92.93
2022-12-23T11:12:42.505Z,91.80
2022-12-23T11:15:29.424Z,91.88
2022-12-23T11:18:06.464Z,91.88
2022-12-23T11:20:35.512Z,91.87
2022-12-23T11:23:05.575Z,91.75
2022-12-23T11:25:36.857Z,91.69
2022-12-23T11:28:08.765Z,92.02
2022-12-23T11:30:55.163Z,91.66
2022-12-23T11:33:27.066Z,91.85
2022-12-23T11:36:04.728Z,91.77
2022-12-23T11:38:32.897Z,92.08
2022-12-23T11:41:01.483Z,92.60
2022-12-23T11:43:29.774Z,92.18
2022-12-23T11:46:18.147Z,92.31
2022-12-23T11:48:52.850Z,92.49
2022-12-23T11:51:26.813Z,92.50
2022-12-23T11:54:01.096Z,92.16
2022-12-23T11:56:30.623Z,92.11
2022-12-23T11:59:04.647Z,92.23
2022-12-23T12:01:33.798Z,92.27
2022-12-23T12:04:07.328Z,92.47
2022-12-23T12:06:35.703Z,92.69
2022-12-23T12:09:06.846Z,92.36
2022-12-23T12:11:40.043Z,92.38
2022-12-23T12:14:09.576Z,92.67
2022-12-23T12:16:51.671Z,92.37
2022-12-23T12:19:25.272Z,92.86
2022-12-23T12:21:58.033Z,92.55
2022-12-23T12:24:29.913Z,92.51
2022-12-23T12:27:03.203Z,93.17
2022-12-23T12:29:37.003Z,92.87
2022-12-23T12:32:15.477Z,93.23
2022-12-23T12:34:50.591Z,92.63
2022-12-23T12:37:26.905Z,92.41
2022-12-23T12:39:57.686Z,92.02
2022-12-23T12:42:30.684Z,92.74
2022-12-23T12:45:11.804Z,92.26
2022-12-23T12:47:56.793Z,92.10
2022-12-23T12:50:30.129Z,92.28
2022-12-23T12:53:01.646Z,91.80
2022-12-23T12:55:32.731Z,91.58
2022-12-23T12:58:02.473Z,91.76
2022-12-23T13:00:38.552Z,91.48
2022-12-23T13:03:24.037Z,92.06
2022-12-23T13:06:05.825Z,91.59
2022-12-23T13:08:55.879Z,92.46
2022-12-23T13:11:30.387Z,91.84
2022-12-23T13:14:06.577Z,91.85
2022-12-23T13:16:44.293Z,92.54
2022-12-23T13:19:27.576Z,92.43
2022-12-23T13:22:04.513Z,92.22
2022-12-23T13:24:39.225Z,92.28
2022-12-23T13:27:12.063Z,92.59
2022-12-23T13:29:58.276Z,92.47
2022-12-23T13:32:53.470Z,92.78
2022-12-23T13:35:35.514Z,92.77
2022-12-23T13:38:16.862Z,92.57
2022-12-23T13:40:54.006Z,92.58
2022-12-23T13:43:24.740Z,92.68
2022-12-23T13:45:55.265Z,92.54
2022-12-23T13:48:37.139Z,92.57
2022-12-23T13:51:13.973Z,92.45
2022-12-23T13:53:58.036Z,92.53
2022-12-23T13:56:37.147Z,92.55
2022-12-23T13:59:10.669Z,93.08
2022-12-23T14:01:46.629Z,93.38
2022-12-23T14:04:34.811Z,93.85
2022-12-23T14:07:06.570Z,93.64
2022-12-23T14:09:36.989Z,94.35
2022-12-23T14:12:22.031Z,93.50
2022-12-23T14:15:20.629Z,93.60
2022-12-23T14:18:02.749Z,93.19
2022-12-23T14:20:44.564Z,92.84
2022-12-23T14:23:28.887Z,93.08
2022-12-23T14:26:10.631Z,93.52
2022-12-23T14:28:56.462Z,92.79
2022-12-23T14:31:31.040Z,93.12
2022-12-23T14:34:05.338Z,92.94
2022-12-23T14:36:33.100Z,93.06
2022-12-23T14:39:32.876Z,92.84
2022-12-23T14:42:06.486Z,93.08
2022-12-23T14:44:49.388Z,92.85
2022-12-23T14:47:32.934Z,93.12
2022-12-23T14:50:34.542Z,93.33
2022-12-23T14:53:03.097Z,93.21
2022-12-23T14:56:09.450Z,93.28
2022-12-23T14:59:12.273Z,93.05
2022-12-23T15:01:42.712Z,92.68
2022-12-23T15:04:19.120Z,92.89
2022-12-23T15:06:49.355Z,93.49
2022-12-23T15:09:25.694Z,93.36
2022-12-23T15:11:54.863Z,94.24
2022-12-23T15:14:32.825Z,94.25
2022-12-23T15:17:00.930Z,93.75
2022-12-23T15:19:29.127Z,93.89
2022-12-23T15:22:17.856Z,93.51
2022-12-23T15:24:49.121Z,92.85
2022-12-23T15:27:27.322Z,92.84
2022-12-23T15:29:58.569Z,92.34
2022-12-23T15:32:28.545Z,92.32
2022-12-23T15:35:02.409Z,92.12
2022-12-23T15:37:32.509Z,91.89
2022-12-23T15:40:11.518Z,92.62
2022-12-23T15:42:48.125Z,93.45
2022-12-23T15:45:31.969Z,93.05
2022-12-23T15:47:59.779Z,93.15
2022-12-23T15:50:28.918Z,93.32
2022-12-23T15:53:06.392Z,93.06
2022-12-23T15:55:36.255Z,93.14
2022-12-23T15:58:05.009Z,93.47
2022-12-23T16:00:40.364Z,93.46
2022-12-23T16:03:22.893Z,93.23
2022-12-23T16:05:50.634Z,93.62
2022-12-23T16:08:30.114Z,93.29
2022-12-23T16:11:06.249Z,93.30
2022-12-23T16:13:34.033Z,93.48
2022-12-23T16:16:31.316Z,93.01
2022-12-23T16:18:59.055Z,92.21
2022-12-23T16:21:31.364Z,92.74
2022-12-23T16:24:00.855Z,92.66
2022-12-23T16:26:28.900Z,92.81
2022-12-23T16:29:00.454Z,92.44
2022-12-23T16:31:29.589Z,92.92
2022-12-23T16:33:59.273Z,91.96
2022-12-23T16:36:35.220Z,92.37
2022-12-23T16:39:20.077Z,92.69
2022-12-23T16:41:48.513Z,91.59
2022-12-23T16:44:16.489Z,91.74
2022-12-23T16:46:48.709Z,92.00
2022-12-23T16:49:17.703Z,91.77
2022-12-23T16:51:45.955Z,91.87
2022-12-23T16:54:16.007Z,91.79
2022-12-23T16:56:44.406Z,92.13
2022-12-23T16:59:11.981Z,91.92
2022-12-23T17:01:42.930Z,92.37
2022-12-23T17:04:12.453Z,92.68
2022-12-23T17:06:41.485Z,93.40
2022-12-23T17:09:09.641Z,93.26
2022-12-23T17:11:41.033Z,92.74
2022-12-23T17:14:16.103Z,93.24
2022-12-23T17:16:44.705Z,93.59
2022-12-23T17:19:14.123Z,92.94
2022-12-23T17:21:44.021Z,93.23
2022-12-23T17:24:17.155Z,92.59
2022-12-23T17:26:45.240Z,92.51
2022-12-23T17:29:13.537Z,92.66
2022-12-23T17:31:43.289Z,92.53
2022-12-23T17:34:17.123Z,92.95
2022-12-23T17:36:49.926Z,92.69
2022-12-23T17:39:18.188Z,92.35
2022-12-23T17:41:45.879Z,92.75
2022-12-23T17:44:15.648Z,92.60
2022-12-23T17:46:44.026Z,93.44
2022-12-23T17:49:12.425Z,93.07
2022-12-23T17:51:43.310Z,92.80
2022-12-23T17:54:21.287Z,92.77
2022-12-23T17:56:49.254Z,93.07
2022-12-23T17:59:16.825Z,93.14
2022-12-23T18:01:45.384Z,93.18
2022-12-23T18:04:13.073Z,93.50
2022-12-23T18:06:41.993Z,93.18
2022-12-23T18:09:09.565Z,92.82
2022-12-23T18:11:41.948Z,93.07
2022-12-23T18:14:16.352Z,92.85
2022-12-23T18:16:44.473Z,92.67
2022-12-23T18:19:17.450Z,92.28
2022-12-23T18:21:47.761Z,92.40
2022-12-23T18:24:15.788Z,92.06
2022-12-23T18:26:44.189Z,92.09
2022-12-23T18:29:11.790Z,92.50
2022-12-23T18:31:51.366Z,92.36
2022-12-23T18:34:20.488Z,92.52
2022-12-23T18:36:52.215Z,92.19
2022-12-23T18:39:19.990Z,92.21
2022-12-23T18:41:47.844Z,91.90
2022-12-23T18:44:20.435Z,91.77
2022-12-23T18:46:49.104Z,92.06
2022-12-23T18:49:17.259Z,91.58
2022-12-23T18:51:45.006Z,91.53
2022-12-23T18:54:16.077Z,91.98
2022-12-23T18:56:44.199Z,91.61
2022-12-23T18:59:16.581Z,91.40
2022-12-23T19:01:44.312Z,91.39
2022-12-23T19:04:11.936Z,91.32
2022-12-23T19:06:39.851Z,91.18
2022-12-23T19:09:08.309Z,90.82
2022-12-23T19:11:37.298Z,90.33
2022-12-23T19:14:05.297Z,90.32
2022-12-23T19:16:33.171Z,90.38
2022-12-23T19:19:01.206Z,90.67
2022-12-23T19:21:28.958Z,89.73
2022-12-23T19:23:58.352Z,89.86
2022-12-23T19:26:26.451Z,90.62
2022-12-23T19:28:56.004Z,90.76
2022-12-23T19:31:24.044Z,90.36
2022-12-23T19:33:52.314Z,90.23
2022-12-23T19:36:22.805Z,91.01
2022-12-23T19:38:52.007Z,90.31
2022-12-23T19:41:20.144Z,90.48
2022-12-23T19:43:48.731Z,90.53
2022-12-23T19:46:18.697Z,90.41
2022-12-23T19:48:51.472Z,90.33
2022-12-23T19:51:19.258Z,90.43
2022-12-23T19:53:53.014Z,90.90
2022-12-23T19:56:21.992Z,90.61
2022-12-23T19:58:50.940Z,91.03
2022-12-23T20:01:22.357Z,91.39
2022-12-23T20:03:52.223Z,91.83
2022-12-23T20:06:22.752Z,91.38
2022-12-23T20:08:54.906Z,91.64
2022-12-23T20:11:26.821Z,92.75
2022-12-23T20:13:55.402Z,92.24
2022-12-23T20:16:24.440Z,92.48
2022-12-23T20:18:53.003Z,92.44
2022-12-23T20:21:20.946Z,92.49
2022-12-23T20:23:49.055Z,93.65
2022-12-23T20:26:18.619Z,94.63
2022-12-23T20:28:46.893Z,94.99
2022-12-23T20:31:18.826Z,94.67
2022-12-23T20:33:50.628Z,95.71
2022-12-23T20:36:21.588Z,96.06
2022-12-23T20:38:50.125Z,97.06
2022-12-23T20:41:19.260Z,96.55
2022-12-23T20:44:02.663Z,96.91
2022-12-23T20:46:35.735Z,97.26
2022-12-23T20:49:05.021Z,98.14
2022-12-23T20:51:32.640Z,97.29
2022-12-23T20:54:01.155Z,96.58
2022-12-23T20:56:30.346Z,96.37
2022-12-23T20:59:03.068Z,95.33
2022-12-23T21:01:33.565Z,93.90
2022-12-23T21:04:03.857Z,94.02
2022-12-23T21:06:33.667Z,94.97
2022-12-23T21:09:05.217Z,95.17
2022-12-23T21:11:34.678Z,95.34
2022-12-23T21:14:06.200Z,95.83
2022-12-23T21:16:35.100Z,96.27
2022-12-23T21:19:04.053Z,95.51
2022-12-23T21:21:33.348Z,95.29
2022-12-23T21:24:04.251Z,94.42
2022-12-23T21:26:34.590Z,94.41
2022-12-23T21:29:03.778Z,93.80
2022-12-23T21:31:33.924Z,93.68
2022-12-23T21:34:01.881Z,93.87
2022-12-23T21:36:32.201Z,92.87
2022-12-23T21:39:02.149Z,92.45
2022-12-23T21:41:32.295Z,92.25
2022-12-23T21:44:01.054Z,92.20
2022-12-23T21:46:30.217Z,91.88
2022-12-23T21:48:58.976Z,92.26
2022-12-23T21:51:36.713Z,92.13
2022-12-23T21:54:09.944Z,92.77
2022-12-23T21:56:38.406Z,92.15
2022-12-23T21:59:08.308Z,94.05
2022-12-23T22:01:36.213Z,95.71
2022-12-23T22:04:03.970Z,96.85
2022-12-23T22:06:33.631Z,97.87
2022-12-23T22:09:01.204Z,99.53
2022-12-23T22:11:33.459Z,98.45
2022-12-23T22:14:02.545Z,99.55
2022-12-23T22:16:32.389Z,100.00
2022-12-23T22:19:01.351Z,100.00
2022-12-23T22:21:32.106Z,100.00
2022-12-23T22:24:00.827Z,100.00
2022-12-23T22:26:32.466Z,100.00
2022-12-23T22:29:01.628Z,99.68
2022-12-23T22:31:35.225Z,98.40
2022-12-23T22:34:03.246Z,98.26
2022-12-23T22:36:31.882Z,98.03
2022-12-23T22:39:01.459Z,97.51
2022-12-23T22:41:31.825Z,96.72
2022-12-23T22:44:00.336Z,97.20
2022-12-23T22:46:29.129Z,94.77
2022-12-23T22:48:58.609Z,94.79
2022-12-23T22:51:29.108Z,92.87
2022-12-23T22:53:57.539Z,93.21
2022-12-23T22:56:26.555Z,91.13
2022-12-23T22:58:55.787Z,90.50
2022-12-23T23:01:26.501Z,89.83
2022-12-23T23:03:57.209Z,91.22
2022-12-23T23:06:26.785Z,91.31
2022-12-23T23:08:54.536Z,89.61
2022-12-23T23:11:23.406Z,88.09
2022-12-23T23:13:51.009Z,88.91
2022-12-23T23:16:20.458Z,88.10
2022-12-23T23:18:48.140Z,88.13
2022-12-23T23:21:16.450Z,87.90
2022-12-23T23:23:44.177Z,88.43
2022-12-23T23:26:15.028Z,87.51
2022-12-23T23:28:43.688Z,87.21
2022-12-23T23:34:01.064Z,87.78
2022-12-23T23:36:29.216Z,88.53
2022-12-23T23:38:56.870Z,87.92
2022-12-23T23:41:24.528Z,87.20
2022-12-23T23:43:52.162Z,88.18
2022-12-23T23:46:20.156Z,88.98
2022-12-23T23:48:49.104Z,88.57
2022-12-23T23:51:18.172Z,89.20
2022-12-23T23:53:46.675Z,89.30
2022-12-23T23:56:14.330Z,89.66
2022-12-23T23:58:42.367Z,89.32
